sensor_id;sensor_type;location;lat;lon;timestamp;P1;durP1;ratioP1;P2;durP2;ratioP2
71106;SDS011;58763;47.982;11.516;2022-11-20T00:00:08;4.30;;;1.50;;
71106;SDS011;58763;47.982;11.516;2022-11-20T00:02:34;3.42;;;1.50;;
71106;SDS011;58763;47.982;11.516;2022-11-20T00:04:59;3.58;;;1.65;;
71106;SDS011;58763;47.982;11.516;2022-11-20T00:07:25;4.22;;;1.52;;
71106;SDS011;58763;47.982;11.516;2022-11-20T00:09:50;3.70;;;1.60;;
71106;SDS011;58763;47.982;11.516;2022-11-20T00:12:15;4.10;;;1.45;;
71106;SDS011;58763;47.982;11.516;2022-11-20T00:14:41;4.00;;;1.55;;
71106;SDS011;58763;47.982;11.516;2022-11-20T00:17:06;4.53;;;1.35;;
71106;SDS011;58763;47.982;11.516;2022-11-20T00:19:32;4.10;;;1.60;;
71106;SDS011;58763;47.982;11.516;2022-11-20T00:21:57;5.32;;;1.45;;
71106;SDS011;58763;47.982;11.516;2022-11-20T00:24:23;3.95;;;1.50;;
71106;SDS011;58763;47.982;11.516;2022-11-20T00:26:48;3.25;;;1.42;;
71106;SDS011;58763;47.982;11.516;2022-11-20T00:29:14;3.28;;;1.65;;
71106;SDS011;58763;47.982;11.516;2022-11-20T00:31:39;3.65;;;1.40;;
71106;SDS011;58763;47.982;11.516;2022-11-20T00:34:05;3.95;;;1.60;;
71106;SDS011;58763;47.982;11.516;2022-11-20T00:36:33;3.38;;;1.45;;
71106;SDS011;58763;47.982;11.516;2022-11-20T00:38:59;3.45;;;1.52;;
71106;SDS011;58763;47.982;11.516;2022-11-20T00:41:25;4.63;;;1.83;;
71106;SDS011;58763;47.982;11.516;2022-11-20T00:43:53;4.30;;;1.63;;
71106;SDS011;58763;47.982;11.516;2022-11-20T00:46:21;4.18;;;1.88;;
71106;SDS011;58763;47.982;11.516;2022-11-20T00:48:48;4.15;;;2.10;;
71106;SDS011;58763;47.982;11.516;2022-11-20T00:51:15;3.78;;;1.70;;
71106;SDS011;58763;47.982;11.516;2022-11-20T00:53:45;3.35;;;1.60;;
71106;SDS011;58763;47.982;11.516;2022-11-20T00:56:12;4.43;;;1.80;;
71106;SDS011;58763;47.982;11.516;2022-11-20T00:58:40;3.58;;;1.88;;
71106;SDS011;58763;47.982;11.516;2022-11-20T01:01:10;4.03;;;1.73;;
71106;SDS011;58763;47.982;11.516;2022-11-20T01:03:38;3.88;;;1.92;;
71106;SDS011;58763;47.982;11.516;2022-11-20T01:06:06;4.40;;;2.08;;
71106;SDS011;58763;47.982;11.516;2022-11-20T01:08:36;4.32;;;1.83;;
71106;SDS011;58763;47.982;11.516;2022-11-20T01:11:02;3.67;;;1.73;;
71106;SDS011;58763;47.982;11.516;2022-11-20T01:13:33;5.38;;;2.10;;
71106;SDS011;58763;47.982;11.516;2022-11-20T01:16:21;4.13;;;1.75;;
71106;SDS011;58763;47.982;11.516;2022-11-20T01:18:51;3.63;;;1.75;;
71106;SDS011;58763;47.982;11.516;2022-11-20T01:21:21;6.45;;;2.17;;
71106;SDS011;58763;47.982;11.516;2022-11-20T01:23:50;5.18;;;2.15;;
71106;SDS011;58763;47.982;11.516;2022-11-20T01:26:20;4.32;;;1.92;;
71106;SDS011;58763;47.982;11.516;2022-11-20T01:28:48;3.20;;;1.50;;
71106;SDS011;58763;47.982;11.516;2022-11-20T01:31:18;3.83;;;1.80;;
71106;SDS011;58763;47.982;11.516;2022-11-20T01:33:45;3.88;;;1.95;;
71106;SDS011;58763;47.982;11.516;2022-11-20T01:36:12;4.65;;;1.88;;
71106;SDS011;58763;47.982;11.516;2022-11-20T01:38:39;3.42;;;1.55;;
71106;SDS011;58763;47.982;11.516;2022-11-20T01:41:04;3.90;;;1.90;;
71106;SDS011;58763;47.982;11.516;2022-11-20T01:43:31;3.00;;;1.60;;
71106;SDS011;58763;47.982;11.516;2022-11-20T01:48:29;4.55;;;1.58;;
71106;SDS011;58763;47.982;11.516;2022-11-20T01:51:01;5.05;;;1.75;;
71106;SDS011;58763;47.982;11.516;2022-11-20T01:53:31;4.63;;;2.08;;
71106;SDS011;58763;47.982;11.516;2022-11-20T01:55:58;3.97;;;2.10;;
71106;SDS011;58763;47.982;11.516;2022-11-20T01:58:28;3.72;;;2.03;;
71106;SDS011;58763;47.982;11.516;2022-11-20T02:00:59;3.67;;;1.75;;
71106;SDS011;58763;47.982;11.516;2022-11-20T02:03:24;3.53;;;1.80;;
71106;SDS011;58763;47.982;11.516;2022-11-20T02:05:51;4.35;;;2.20;;
71106;SDS011;58763;47.982;11.516;2022-11-20T02:08:23;4.35;;;2.08;;
71106;SDS011;58763;47.982;11.516;2022-11-20T02:10:48;4.30;;;2.17;;
71106;SDS011;58763;47.982;11.516;2022-11-20T02:13:14;3.88;;;2.03;;
71106;SDS011;58763;47.982;11.516;2022-11-20T02:15:59;4.18;;;2.00;;
71106;SDS011;58763;47.982;11.516;2022-11-20T02:18:25;3.80;;;1.77;;
71106;SDS011;58763;47.982;11.516;2022-11-20T02:20:53;6.93;;;2.15;;
71106;SDS011;58763;47.982;11.516;2022-11-20T02:23:28;4.18;;;1.85;;
71106;SDS011;58763;47.982;11.516;2022-11-20T02:25:57;5.45;;;1.80;;
71106;SDS011;58763;47.982;11.516;2022-11-20T02:28:23;4.18;;;2.20;;
71106;SDS011;58763;47.982;11.516;2022-11-20T02:30:49;6.78;;;2.45;;
71106;SDS011;58763;47.982;11.516;2022-11-20T02:33:15;4.43;;;2.10;;
71106;SDS011;58763;47.982;11.516;2022-11-20T02:35:44;5.28;;;2.20;;
71106;SDS011;58763;47.982;11.516;2022-11-20T02:38:11;4.75;;;2.00;;
71106;SDS011;58763;47.982;11.516;2022-11-20T02:40:37;4.40;;;2.15;;
71106;SDS011;58763;47.982;11.516;2022-11-20T02:43:02;4.90;;;2.50;;
71106;SDS011;58763;47.982;11.516;2022-11-20T02:45:28;4.68;;;2.53;;
71106;SDS011;58763;47.982;11.516;2022-11-20T02:47:53;4.78;;;2.40;;
71106;SDS011;58763;47.982;11.516;2022-11-20T02:50:18;4.65;;;2.40;;
71106;SDS011;58763;47.982;11.516;2022-11-20T02:52:45;5.68;;;2.92;;
71106;SDS011;58763;47.982;11.516;2022-11-20T02:55:11;5.75;;;2.80;;
71106;SDS011;58763;47.982;11.516;2022-11-20T02:57:36;4.75;;;2.50;;
71106;SDS011;58763;47.982;11.516;2022-11-20T03:00:02;4.95;;;2.50;;
71106;SDS011;58763;47.982;11.516;2022-11-20T03:02:29;5.35;;;2.63;;
71106;SDS011;58763;47.982;11.516;2022-11-20T03:04:55;5.43;;;2.85;;
71106;SDS011;58763;47.982;11.516;2022-11-20T03:07:21;5.05;;;2.83;;
71106;SDS011;58763;47.982;11.516;2022-11-20T03:09:46;6.80;;;2.38;;
71106;SDS011;58763;47.982;11.516;2022-11-20T03:12:12;5.25;;;2.70;;
71106;SDS011;58763;47.982;11.516;2022-11-20T03:14:37;6.03;;;2.92;;
71106;SDS011;58763;47.982;11.516;2022-11-20T03:17:02;6.07;;;2.60;;
71106;SDS011;58763;47.982;11.516;2022-11-20T03:19:28;5.20;;;2.42;;
71106;SDS011;58763;47.982;11.516;2022-11-20T03:21:54;4.97;;;2.60;;
71106;SDS011;58763;47.982;11.516;2022-11-20T03:24:19;5.30;;;2.67;;
71106;SDS011;58763;47.982;11.516;2022-11-20T03:26:44;5.75;;;3.10;;
71106;SDS011;58763;47.982;11.516;2022-11-20T03:29:10;5.63;;;3.17;;
71106;SDS011;58763;47.982;11.516;2022-11-20T03:31:37;6.45;;;3.60;;
71106;SDS011;58763;47.982;11.516;2022-11-20T03:34:08;5.75;;;3.00;;
71106;SDS011;58763;47.982;11.516;2022-11-20T03:36:35;5.53;;;2.95;;
71106;SDS011;58763;47.982;11.516;2022-11-20T03:39:03;5.53;;;3.10;;
71106;SDS011;58763;47.982;11.516;2022-11-20T03:41:29;6.57;;;2.90;;
71106;SDS011;58763;47.982;11.516;2022-11-20T03:43:57;6.32;;;3.10;;
71106;SDS011;58763;47.982;11.516;2022-11-20T03:46:24;5.00;;;3.00;;
71106;SDS011;58763;47.982;11.516;2022-11-20T03:48:50;5.80;;;3.17;;
71106;SDS011;58763;47.982;11.516;2022-11-20T03:51:17;6.93;;;3.17;;
71106;SDS011;58763;47.982;11.516;2022-11-20T03:53:45;5.10;;;2.50;;
71106;SDS011;58763;47.982;11.516;2022-11-20T03:56:12;5.90;;;2.67;;
71106;SDS011;58763;47.982;11.516;2022-11-20T03:58:39;5.50;;;2.60;;
71106;SDS011;58763;47.982;11.516;2022-11-20T04:01:07;6.57;;;2.53;;
71106;SDS011;58763;47.982;11.516;2022-11-20T04:03:37;5.80;;;3.03;;
71106;SDS011;58763;47.982;11.516;2022-11-20T04:06:11;12.52;;;3.55;;
71106;SDS011;58763;47.982;11.516;2022-11-20T04:08:36;6.20;;;2.90;;
71106;SDS011;58763;47.982;11.516;2022-11-20T04:13:34;5.60;;;3.30;;
71106;SDS011;58763;47.982;11.516;2022-11-20T04:16:00;6.00;;;3.05;;
71106;SDS011;58763;47.982;11.516;2022-11-20T04:18:25;5.65;;;3.10;;
71106;SDS011;58763;47.982;11.516;2022-11-20T04:20:51;5.18;;;3.10;;
71106;SDS011;58763;47.982;11.516;2022-11-20T04:23:16;5.57;;;2.70;;
71106;SDS011;58763;47.982;11.516;2022-11-20T04:25:42;5.72;;;2.70;;
71106;SDS011;58763;47.982;11.516;2022-11-20T04:28:07;6.18;;;2.70;;
71106;SDS011;58763;47.982;11.516;2022-11-20T04:30:32;5.38;;;2.80;;
71106;SDS011;58763;47.982;11.516;2022-11-20T04:32:58;6.15;;;3.10;;
71106;SDS011;58763;47.982;11.516;2022-11-20T04:35:23;5.15;;;2.63;;
71106;SDS011;58763;47.982;11.516;2022-11-20T04:37:51;5.13;;;2.67;;
71106;SDS011;58763;47.982;11.516;2022-11-20T04:40:17;4.22;;;2.25;;
71106;SDS011;58763;47.982;11.516;2022-11-20T04:42:42;6.43;;;3.03;;
71106;SDS011;58763;47.982;11.516;2022-11-20T04:45:08;5.43;;;2.72;;
71106;SDS011;58763;47.982;11.516;2022-11-20T04:47:33;5.22;;;3.10;;
71106;SDS011;58763;47.982;11.516;2022-11-20T04:49:59;5.50;;;2.92;;
71106;SDS011;58763;47.982;11.516;2022-11-20T04:52:24;5.43;;;2.90;;
71106;SDS011;58763;47.982;11.516;2022-11-20T04:54:50;7.80;;;3.00;;
71106;SDS011;58763;47.982;11.516;2022-11-20T04:57:18;5.00;;;2.92;;
71106;SDS011;58763;47.982;11.516;2022-11-20T04:59:44;6.30;;;3.03;;
71106;SDS011;58763;47.982;11.516;2022-11-20T05:02:09;5.13;;;2.60;;
71106;SDS011;58763;47.982;11.516;2022-11-20T05:04:36;6.35;;;2.75;;
71106;SDS011;58763;47.982;11.516;2022-11-20T05:07:01;6.90;;;3.08;;
71106;SDS011;58763;47.982;11.516;2022-11-20T05:09:27;6.57;;;3.40;;
71106;SDS011;58763;47.982;11.516;2022-11-20T05:11:52;5.88;;;3.08;;
71106;SDS011;58763;47.982;11.516;2022-11-20T05:14:18;7.28;;;3.47;;
71106;SDS011;58763;47.982;11.516;2022-11-20T05:16:43;5.72;;;3.65;;
71106;SDS011;58763;47.982;11.516;2022-11-20T05:19:09;5.95;;;3.45;;
71106;SDS011;58763;47.982;11.516;2022-11-20T05:21:34;8.32;;;3.28;;
71106;SDS011;58763;47.982;11.516;2022-11-20T05:24:00;6.53;;;3.50;;
71106;SDS011;58763;47.982;11.516;2022-11-20T05:26:25;7.03;;;3.83;;
71106;SDS011;58763;47.982;11.516;2022-11-20T05:28:51;7.60;;;3.92;;
71106;SDS011;58763;47.982;11.516;2022-11-20T05:31:17;6.72;;;3.72;;
71106;SDS011;58763;47.982;11.516;2022-11-20T05:33:45;7.03;;;3.92;;
71106;SDS011;58763;47.982;11.516;2022-11-20T05:36:11;7.20;;;4.00;;
71106;SDS011;58763;47.982;11.516;2022-11-20T05:38:38;7.70;;;4.00;;
71106;SDS011;58763;47.982;11.516;2022-11-20T05:41:08;6.47;;;4.00;;
71106;SDS011;58763;47.982;11.516;2022-11-20T05:43:36;7.22;;;4.03;;
71106;SDS011;58763;47.982;11.516;2022-11-20T05:46:04;5.35;;;3.40;;
71106;SDS011;58763;47.982;11.516;2022-11-20T05:48:30;5.53;;;3.67;;
71106;SDS011;58763;47.982;11.516;2022-11-20T05:50:57;8.20;;;4.32;;
71106;SDS011;58763;47.982;11.516;2022-11-20T05:53:23;6.28;;;3.60;;
71106;SDS011;58763;47.982;11.516;2022-11-20T05:56:05;6.43;;;3.80;;
71106;SDS011;58763;47.982;11.516;2022-11-20T05:58:35;5.72;;;3.45;;
71106;SDS011;58763;47.982;11.516;2022-11-20T06:01:09;5.75;;;3.40;;
71106;SDS011;58763;47.982;11.516;2022-11-20T06:06:19;8.35;;;3.70;;
71106;SDS011;58763;47.982;11.516;2022-11-20T06:08:45;6.22;;;3.50;;
71106;SDS011;58763;47.982;11.516;2022-11-20T06:11:11;6.07;;;3.28;;
71106;SDS011;58763;47.982;11.516;2022-11-20T06:13:38;5.75;;;3.00;;
71106;SDS011;58763;47.982;11.516;2022-11-20T06:16:04;5.25;;;3.03;;
71106;SDS011;58763;47.982;11.516;2022-11-20T06:18:30;5.25;;;2.83;;
71106;SDS011;58763;47.982;11.516;2022-11-20T06:20:59;6.05;;;3.22;;
71106;SDS011;58763;47.982;11.516;2022-11-20T06:23:30;6.25;;;2.72;;
71106;SDS011;58763;47.982;11.516;2022-11-20T06:25:56;4.75;;;2.53;;
71106;SDS011;58763;47.982;11.516;2022-11-20T06:28:22;4.75;;;2.63;;
71106;SDS011;58763;47.982;11.516;2022-11-20T06:30:47;4.43;;;2.35;;
71106;SDS011;58763;47.982;11.516;2022-11-20T06:33:13;4.28;;;2.38;;
71106;SDS011;58763;47.982;11.516;2022-11-20T06:35:38;5.07;;;2.35;;
71106;SDS011;58763;47.982;11.516;2022-11-20T06:38:04;5.00;;;2.80;;
71106;SDS011;58763;47.982;11.516;2022-11-20T06:40:29;4.88;;;2.67;;
71106;SDS011;58763;47.982;11.516;2022-11-20T06:42:54;6.38;;;2.90;;
71106;SDS011;58763;47.982;11.516;2022-11-20T06:45:20;5.35;;;2.97;;
71106;SDS011;58763;47.982;11.516;2022-11-20T06:47:46;6.78;;;3.40;;
71106;SDS011;58763;47.982;11.516;2022-11-20T06:50:12;6.50;;;3.78;;
71106;SDS011;58763;47.982;11.516;2022-11-20T06:52:38;6.95;;;3.35;;
71106;SDS011;58763;47.982;11.516;2022-11-20T06:55:03;6.25;;;2.97;;
71106;SDS011;58763;47.982;11.516;2022-11-20T06:57:29;5.95;;;3.58;;
71106;SDS011;58763;47.982;11.516;2022-11-20T06:59:55;6.60;;;3.70;;
71106;SDS011;58763;47.982;11.516;2022-11-20T07:02:20;6.65;;;3.80;;
71106;SDS011;58763;47.982;11.516;2022-11-20T07:04:45;7.25;;;3.60;;
71106;SDS011;58763;47.982;11.516;2022-11-20T07:07:11;6.25;;;3.65;;
71106;SDS011;58763;47.982;11.516;2022-11-20T07:09:36;6.32;;;3.25;;
71106;SDS011;58763;47.982;11.516;2022-11-20T07:12:02;6.43;;;3.38;;
71106;SDS011;58763;47.982;11.516;2022-11-20T07:14:27;5.35;;;3.10;;
71106;SDS011;58763;47.982;11.516;2022-11-20T07:16:53;6.05;;;2.95;;
71106;SDS011;58763;47.982;11.516;2022-11-20T07:19:18;5.70;;;3.05;;
71106;SDS011;58763;47.982;11.516;2022-11-20T07:21:43;7.05;;;3.35;;
71106;SDS011;58763;47.982;11.516;2022-11-20T07:24:09;6.30;;;3.03;;
71106;SDS011;58763;47.982;11.516;2022-11-20T07:26:34;5.68;;;3.15;;
71106;SDS011;58763;47.982;11.516;2022-11-20T07:29:00;5.80;;;2.85;;
71106;SDS011;58763;47.982;11.516;2022-11-20T07:31:26;4.80;;;2.70;;
71106;SDS011;58763;47.982;11.516;2022-11-20T07:33:51;5.50;;;3.15;;
71106;SDS011;58763;47.982;11.516;2022-11-20T07:36:17;6.68;;;3.13;;
71106;SDS011;58763;47.982;11.516;2022-11-20T07:38:42;6.22;;;2.80;;
71106;SDS011;58763;47.982;11.516;2022-11-20T07:41:07;5.82;;;2.90;;
71106;SDS011;58763;47.982;11.516;2022-11-20T07:43:33;5.65;;;2.80;;
71106;SDS011;58763;47.982;11.516;2022-11-20T07:45:58;6.07;;;2.83;;
71106;SDS011;58763;47.982;11.516;2022-11-20T07:48:24;5.85;;;2.78;;
71106;SDS011;58763;47.982;11.516;2022-11-20T07:50:54;4.82;;;2.70;;
71106;SDS011;58763;47.982;11.516;2022-11-20T07:53:20;6.40;;;2.97;;
71106;SDS011;58763;47.982;11.516;2022-11-20T07:55:47;4.57;;;2.60;;
71106;SDS011;58763;47.982;11.516;2022-11-20T07:58:12;5.28;;;2.88;;
71106;SDS011;58763;47.982;11.516;2022-11-20T08:00:39;5.00;;;3.00;;
71106;SDS011;58763;47.982;11.516;2022-11-20T08:03:05;7.30;;;2.95;;
71106;SDS011;58763;47.982;11.516;2022-11-20T08:05:31;5.50;;;2.47;;
71106;SDS011;58763;47.982;11.516;2022-11-20T08:07:57;5.40;;;2.30;;
71106;SDS011;58763;47.982;11.516;2022-11-20T08:10:22;4.20;;;2.60;;
71106;SDS011;58763;47.982;11.516;2022-11-20T08:12:49;4.10;;;2.50;;
71106;SDS011;58763;47.982;11.516;2022-11-20T08:15:34;4.60;;;2.75;;
71106;SDS011;58763;47.982;11.516;2022-11-20T08:18:18;4.78;;;2.55;;
71106;SDS011;58763;47.982;11.516;2022-11-20T08:20:44;4.43;;;2.28;;
71106;SDS011;58763;47.982;11.516;2022-11-20T08:23:10;5.20;;;2.40;;
71106;SDS011;58763;47.982;11.516;2022-11-20T08:25:36;3.97;;;2.20;;
71106;SDS011;58763;47.982;11.516;2022-11-20T08:28:04;4.55;;;2.00;;
71106;SDS011;58763;47.982;11.516;2022-11-20T08:30:31;5.35;;;2.45;;
71106;SDS011;58763;47.982;11.516;2022-11-20T08:33:00;5.47;;;2.50;;
71106;SDS011;58763;47.982;11.516;2022-11-20T08:35:28;5.10;;;2.28;;
71106;SDS011;58763;47.982;11.516;2022-11-20T08:37:53;4.65;;;2.30;;
71106;SDS011;58763;47.982;11.516;2022-11-20T08:40:19;4.10;;;2.00;;
71106;SDS011;58763;47.982;11.516;2022-11-20T08:42:48;5.07;;;2.47;;
71106;SDS011;58763;47.982;11.516;2022-11-20T08:45:14;5.68;;;2.42;;
71106;SDS011;58763;47.982;11.516;2022-11-20T08:47:41;5.07;;;2.55;;
71106;SDS011;58763;47.982;11.516;2022-11-20T08:50:07;6.05;;;2.17;;
71106;SDS011;58763;47.982;11.516;2022-11-20T08:52:34;6.05;;;2.60;;
71106;SDS011;58763;47.982;11.516;2022-11-20T08:54:59;5.65;;;2.45;;
71106;SDS011;58763;47.982;11.516;2022-11-20T08:57:25;6.18;;;2.22;;
71106;SDS011;58763;47.982;11.516;2022-11-20T08:59:50;4.38;;;2.05;;
71106;SDS011;58763;47.982;11.516;2022-11-20T09:02:16;4.88;;;2.20;;
71106;SDS011;58763;47.982;11.516;2022-11-20T09:04:41;3.95;;;2.10;;
71106;SDS011;58763;47.982;11.516;2022-11-20T09:07:07;5.78;;;2.00;;
71106;SDS011;58763;47.982;11.516;2022-11-20T09:09:32;4.57;;;1.90;;
71106;SDS011;58763;47.982;11.516;2022-11-20T09:11:58;4.78;;;2.13;;
71106;SDS011;58763;47.982;11.516;2022-11-20T09:14:24;3.95;;;1.80;;
71106;SDS011;58763;47.982;11.516;2022-11-20T09:16:56;3.22;;;1.88;;
71106;SDS011;58763;47.982;11.516;2022-11-20T09:19:23;4.68;;;1.83;;
71106;SDS011;58763;47.982;11.516;2022-11-20T09:21:49;3.45;;;1.67;;
71106;SDS011;58763;47.982;11.516;2022-11-20T09:24:15;3.58;;;1.67;;
71106;SDS011;58763;47.982;11.516;2022-11-20T09:26:40;3.70;;;1.48;;
71106;SDS011;58763;47.982;11.516;2022-11-20T09:29:06;2.95;;;1.38;;
71106;SDS011;58763;47.982;11.516;2022-11-20T09:31:31;3.85;;;1.58;;
71106;SDS011;58763;47.982;11.516;2022-11-20T09:33:57;2.70;;;1.30;;
71106;SDS011;58763;47.982;11.516;2022-11-20T09:36:22;3.08;;;1.20;;
71106;SDS011;58763;47.982;11.516;2022-11-20T09:38:48;4.13;;;1.63;;
71106;SDS011;58763;47.982;11.516;2022-11-20T09:41:19;4.88;;;1.70;;
71106;SDS011;58763;47.982;11.516;2022-11-20T09:44:13;2.65;;;1.17;;
71106;SDS011;58763;47.982;11.516;2022-11-20T09:47:05;3.97;;;1.40;;
71106;SDS011;58763;47.982;11.516;2022-11-20T09:52:49;3.28;;;1.30;;
71106;SDS011;58763;47.982;11.516;2022-11-20T09:55:28;3.15;;;1.30;;
71106;SDS011;58763;47.982;11.516;2022-11-20T09:57:55;2.70;;;1.30;;
71106;SDS011;58763;47.982;11.516;2022-11-20T10:00:24;3.65;;;1.40;;
71106;SDS011;58763;47.982;11.516;2022-11-20T10:02:53;3.30;;;1.08;;
71106;SDS011;58763;47.982;11.516;2022-11-20T10:11:29;3.20;;;1.60;;
71106;SDS011;58763;47.982;11.516;2022-11-20T10:24:57;3.30;;;1.45;;
71106;SDS011;58763;47.982;11.516;2022-11-20T10:30:21;3.78;;;1.20;;
71106;SDS011;58763;47.982;11.516;2022-11-20T10:32:52;2.90;;;1.30;;
71106;SDS011;58763;47.982;11.516;2022-11-20T10:36:04;3.17;;;1.27;;
71106;SDS011;58763;47.982;11.516;2022-11-20T10:38:26;3.38;;;1.25;;
71106;SDS011;58763;47.982;11.516;2022-11-20T10:41:28;2.28;;;1.13;;
71106;SDS011;58763;47.982;11.516;2022-11-20T10:44:30;2.65;;;1.00;;
71106;SDS011;58763;47.982;11.516;2022-11-20T10:47:13;2.63;;;1.00;;
71106;SDS011;58763;47.982;11.516;2022-11-20T10:49:40;2.10;;;1.00;;
71106;SDS011;58763;47.982;11.516;2022-11-20T10:58:03;2.10;;;0.90;;
71106;SDS011;58763;47.982;11.516;2022-11-20T11:00:34;5.20;;;1.63;;
71106;SDS011;58763;47.982;11.516;2022-11-20T11:02:59;3.38;;;1.25;;
71106;SDS011;58763;47.982;11.516;2022-11-20T11:08:13;3.05;;;1.15;;
71106;SDS011;58763;47.982;11.516;2022-11-20T11:13:25;4.80;;;2.10;;
71106;SDS011;58763;47.982;11.516;2022-11-20T11:15:53;5.13;;;2.40;;
71106;SDS011;58763;47.982;11.516;2022-11-20T11:18:37;3.30;;;1.67;;
71106;SDS011;58763;47.982;11.516;2022-11-20T11:21:03;3.67;;;1.67;;
71106;SDS011;58763;47.982;11.516;2022-11-20T11:26:00;4.40;;;1.20;;
71106;SDS011;58763;47.982;11.516;2022-11-20T11:28:27;2.60;;;1.15;;
71106;SDS011;58763;47.982;11.516;2022-11-20T11:30:53;2.33;;;1.08;;
71106;SDS011;58763;47.982;11.516;2022-11-20T11:33:30;2.70;;;1.30;;
71106;SDS011;58763;47.982;11.516;2022-11-20T11:36:15;2.15;;;0.95;;
71106;SDS011;58763;47.982;11.516;2022-11-20T11:38:44;2.17;;;1.15;;
71106;SDS011;58763;47.982;11.516;2022-11-20T11:41:15;2.97;;;1.33;;
71106;SDS011;58763;47.982;11.516;2022-11-20T11:43:58;1.95;;;0.95;;
71106;SDS011;58763;47.982;11.516;2022-11-20T11:46:55;2.80;;;1.40;;
71106;SDS011;58763;47.982;11.516;2022-11-20T11:49:21;2.70;;;1.40;;
71106;SDS011;58763;47.982;11.516;2022-11-20T11:55:01;2.65;;;1.10;;
71106;SDS011;58763;47.982;11.516;2022-11-20T11:57:34;3.75;;;0.88;;
71106;SDS011;58763;47.982;11.516;2022-11-20T12:00:14;3.38;;;1.13;;
71106;SDS011;58763;47.982;11.516;2022-11-20T12:13:41;2.75;;;1.15;;
71106;SDS011;58763;47.982;11.516;2022-11-20T12:16:12;2.50;;;1.10;;
71106;SDS011;58763;47.982;11.516;2022-11-20T12:18:39;2.50;;;1.20;;
71106;SDS011;58763;47.982;11.516;2022-11-20T12:29:48;2.85;;;1.30;;
71106;SDS011;58763;47.982;11.516;2022-11-20T12:38:04;2.47;;;1.17;;
71106;SDS011;58763;47.982;11.516;2022-11-20T12:44:16;3.30;;;1.38;;
71106;SDS011;58763;47.982;11.516;2022-11-20T12:49:46;3.15;;;1.25;;
71106;SDS011;58763;47.982;11.516;2022-11-20T12:54:53;3.55;;;1.50;;
71106;SDS011;58763;47.982;11.516;2022-11-20T12:57:49;3.42;;;1.33;;
71106;SDS011;58763;47.982;11.516;2022-11-20T13:00:22;3.20;;;1.50;;
71106;SDS011;58763;47.982;11.516;2022-11-20T13:05:40;3.20;;;1.40;;
71106;SDS011;58763;47.982;11.516;2022-11-20T13:08:08;2.80;;;1.27;;
71106;SDS011;58763;47.982;11.516;2022-11-20T13:11:31;4.57;;;1.30;;
71106;SDS011;58763;47.982;11.516;2022-11-20T13:18:54;3.08;;;1.23;;
71106;SDS011;58763;47.982;11.516;2022-11-20T13:21:21;4.18;;;1.48;;
71106;SDS011;58763;47.982;11.516;2022-11-20T13:23:48;2.60;;;1.20;;
71106;SDS011;58763;47.982;11.516;2022-11-20T13:26:22;2.90;;;1.27;;
71106;SDS011;58763;47.982;11.516;2022-11-20T13:29:02;3.35;;;1.63;;
71106;SDS011;58763;47.982;11.516;2022-11-20T13:32:00;3.17;;;1.40;;
71106;SDS011;58763;47.982;11.516;2022-11-20T13:34:28;4.38;;;1.30;;
71106;SDS011;58763;47.982;11.516;2022-11-20T13:36:55;4.60;;;1.70;;
71106;SDS011;58763;47.982;11.516;2022-11-20T13:39:27;3.28;;;1.27;;
71106;SDS011;58763;47.982;11.516;2022-11-20T13:41:55;3.20;;;1.52;;
71106;SDS011;58763;47.982;11.516;2022-11-20T13:44:38;4.28;;;1.48;;
71106;SDS011;58763;47.982;11.516;2022-11-20T13:47:23;2.65;;;1.35;;
71106;SDS011;58763;47.982;11.516;2022-11-20T13:49:54;4.05;;;1.52;;
71106;SDS011;58763;47.982;11.516;2022-11-20T13:52:36;2.75;;;1.38;;
71106;SDS011;58763;47.982;11.516;2022-11-20T14:00:29;3.50;;;1.60;;
71106;SDS011;58763;47.982;11.516;2022-11-20T14:05:56;3.03;;;1.58;;
71106;SDS011;58763;47.982;11.516;2022-11-20T14:08:40;2.40;;;1.30;;
71106;SDS011;58763;47.982;11.516;2022-11-20T14:16:39;4.35;;;2.20;;
71106;SDS011;58763;47.982;11.516;2022-11-20T14:21:49;4.97;;;1.80;;
71106;SDS011;58763;47.982;11.516;2022-11-20T14:24:34;4.10;;;2.05;;
71106;SDS011;58763;47.982;11.516;2022-11-20T14:27:00;5.65;;;2.78;;
71106;SDS011;58763;47.982;11.516;2022-11-20T14:29:29;3.47;;;1.67;;
71106;SDS011;58763;47.982;11.516;2022-11-20T14:31:59;4.05;;;1.80;;
71106;SDS011;58763;47.982;11.516;2022-11-20T14:34:27;3.72;;;1.85;;
71106;SDS011;58763;47.982;11.516;2022-11-20T14:36:58;3.40;;;1.58;;
71106;SDS011;58763;47.982;11.516;2022-11-20T14:39:30;3.08;;;1.50;;
71106;SDS011;58763;47.982;11.516;2022-11-20T14:41:58;4.45;;;1.60;;
71106;SDS011;58763;47.982;11.516;2022-11-20T14:44:26;3.33;;;1.50;;
71106;SDS011;58763;47.982;11.516;2022-11-20T14:46:54;3.70;;;1.70;;
71106;SDS011;58763;47.982;11.516;2022-11-20T14:49:20;3.95;;;1.30;;
71106;SDS011;58763;47.982;11.516;2022-11-20T14:51:46;2.53;;;1.15;;
71106;SDS011;58763;47.982;11.516;2022-11-20T14:54:22;2.72;;;1.35;;
71106;SDS011;58763;47.982;11.516;2022-11-20T14:59:28;1.92;;;0.68;;
71106;SDS011;58763;47.982;11.516;2022-11-20T15:02:07;3.75;;;1.30;;
71106;SDS011;58763;47.982;11.516;2022-11-20T15:04:48;4.82;;;2.58;;
71106;SDS011;58763;47.982;11.516;2022-11-20T15:07:27;3.30;;;1.60;;
71106;SDS011;58763;47.982;11.516;2022-11-20T15:09:59;4.22;;;1.88;;
71106;SDS011;58763;47.982;11.516;2022-11-20T15:12:25;4.93;;;2.60;;
71106;SDS011;58763;47.982;11.516;2022-11-20T15:14:50;3.25;;;1.52;;
71106;SDS011;58763;47.982;11.516;2022-11-20T15:17:16;4.30;;;1.48;;
71106;SDS011;58763;47.982;11.516;2022-11-20T15:19:41;3.90;;;1.45;;
71106;SDS011;58763;47.982;11.516;2022-11-20T15:22:09;4.50;;;1.50;;
71106;SDS011;58763;47.982;11.516;2022-11-20T15:24:38;2.78;;;1.13;;
71106;SDS011;58763;47.982;11.516;2022-11-20T15:27:03;3.67;;;1.38;;
71106;SDS011;58763;47.982;11.516;2022-11-20T15:29:29;3.55;;;1.40;;
71106;SDS011;58763;47.982;11.516;2022-11-20T15:31:54;2.28;;;0.95;;
71106;SDS011;58763;47.982;11.516;2022-11-20T15:34:21;4.93;;;1.20;;
71106;SDS011;58763;47.982;11.516;2022-11-20T15:36:46;2.47;;;0.88;;
71106;SDS011;58763;47.982;11.516;2022-11-20T15:39:11;3.35;;;1.50;;
71106;SDS011;58763;47.982;11.516;2022-11-20T15:41:37;4.25;;;1.45;;
71106;SDS011;58763;47.982;11.516;2022-11-20T15:44:03;2.45;;;1.20;;
71106;SDS011;58763;47.982;11.516;2022-11-20T15:46:33;2.28;;;1.05;;
71106;SDS011;58763;47.982;11.516;2022-11-20T15:49:03;4.43;;;1.27;;
71106;SDS011;58763;47.982;11.516;2022-11-20T15:51:36;3.80;;;1.08;;
71106;SDS011;58763;47.982;11.516;2022-11-20T15:54:09;2.22;;;1.10;;
71106;SDS011;58763;47.982;11.516;2022-11-20T15:56:36;2.97;;;1.13;;
71106;SDS011;58763;47.982;11.516;2022-11-20T15:59:02;3.13;;;1.08;;
71106;SDS011;58763;47.982;11.516;2022-11-20T16:01:28;1.85;;;0.80;;
71106;SDS011;58763;47.982;11.516;2022-11-20T16:03:53;3.47;;;1.08;;
71106;SDS011;58763;47.982;11.516;2022-11-20T16:06:19;2.17;;;0.85;;
71106;SDS011;58763;47.982;11.516;2022-11-20T16:08:44;2.42;;;1.00;;
71106;SDS011;58763;47.982;11.516;2022-11-20T16:11:11;3.22;;;1.20;;
71106;SDS011;58763;47.982;11.516;2022-11-20T16:13:38;2.58;;;1.00;;
71106;SDS011;58763;47.982;11.516;2022-11-20T16:16:23;2.10;;;0.82;;
71106;SDS011;58763;47.982;11.516;2022-11-20T16:21:19;2.40;;;0.77;;
71106;SDS011;58763;47.982;11.516;2022-11-20T16:23:45;1.92;;;0.90;;
71106;SDS011;58763;47.982;11.516;2022-11-20T16:26:12;2.42;;;1.10;;
71106;SDS011;58763;47.982;11.516;2022-11-20T16:28:39;3.75;;;1.00;;
71106;SDS011;58763;47.982;11.516;2022-11-20T16:31:23;2.38;;;1.20;;
71106;SDS011;58763;47.982;11.516;2022-11-20T16:33:49;3.03;;;1.23;;